Time;durP1;ratioP1;P1;durP2;ratioP2;P2;SDS_P1;SDS_P2;PMS_P1;PMS_P2;Temp;Humidity;BMP_temperature;BMP_pressure;BME280_temperature;BME280_humidity;BME280_pressure;Samples;Min_cycle;Max_cycle;Signal;HPM_P1;HPM_P2
2022/09/22 00:01:55;;;;;;;12.70;11.90;;;15.00;99.90;;;;;;4921467;29;20024;-93
2022/09/22 00:04:21;;;;;;;12.10;11.50;;;15.00;99.90;;;;;;4921990;29;20032;-94
2022/09/22 00:06:50;;;;;;;12.93;12.13;;;15.00;99.90;;;;;;4904688;29;20020;-92
2022/09/22 00:09:19;;;;;;;12.85;11.90;;;15.00;99.90;;;;;;4921362;29;20043;-92
2022/09/22 00:11:49;;;;;;;12.10;11.32;;;15.00;99.90;;;;;;4921685;29;20386;-93
2022/09/22 00:14:20;;;;;;;13.00;12.00;;;15.00;99.90;;;;;;4921152;29;20071;-94
2022/09/22 00:16:54;;;;;;;12.20;11.55;;;15.00;99.90;;;;;;4921175;29;20027;-95
2022/09/22 00:19:25;;;;;;;12.55;11.73;;;15.00;99.90;;;;;;4921290;29;20037;-95
2022/09/22 00:21:52;;;;;;;11.98;11.18;;;15.00;99.90;;;;;;4921221;29;20496;-93
2022/09/22 00:24:21;;;;;;;12.07;11.23;;;15.00;99.90;;;;;;4921570;29;20115;-96
2022/09/22 00:26:49;;;;;;;12.38;11.57;;;15.00;99.90;;;;;;4921284;29;20401;-93
2022/09/22 00:29:16;;;;;;;12.38;11.57;;;15.00;99.90;;;;;;4921588;29;20079;-94
2022/09/22 00:31:44;;;;;;;11.95;11.27;;;15.00;99.90;;;;;;4921044;29;20473;-94
2022/09/22 00:34:17;;;;;;;12.07;11.30;;;15.00;99.90;;;;;;4921064;29;20032;-92
2022/09/22 00:36:47;;;;;;;12.18;11.40;;;15.00;99.90;;;;;;4921151;29;20035;-93
2022/09/22 00:39:15;;;;;;;12.35;11.68;;;15.10;99.90;;;;;;4921142;29;20100;-93
2022/09/22 00:41:46;;;;;;;12.70;11.90;;;15.00;99.90;;;;;;4921169;29;20087;-94
2022/09/22 00:44:29;;;;;;;12.32;11.73;;;15.10;99.90;;;;;;4921427;29;20032;-94
2022/09/22 00:46:59;;;;;;;12.82;11.88;;;15.10;99.90;;;;;;4906608;29;20370;-93
2022/09/22 00:49:41;;;;;;;12.35;11.50;;;15.20;99.90;;;;;;4905163;29;20481;-93
2022/09/22 00:52:10;;;;;;;12.00;11.40;;;15.20;99.90;;;;;;4904998;29;20036;-94
2022/09/22 00:54:40;;;;;;;12.00;11.20;;;15.20;99.90;;;;;;4920718;29;20056;-94
2022/09/22 00:57:15;;;;;;;12.68;11.60;;;15.30;99.90;;;;;;4921271;29;20262;-95
2022/09/22 00:59:46;;;;;;;12.10;11.27;;;15.40;99.90;;;;;;4920805;29;20032;-94
2022/09/22 01:02:13;;;;;;;12.10;11.32;;;15.40;99.90;;;;;;4921069;29;20078;-94
2022/09/22 01:04:41;;;;;;;12.45;11.60;;;15.50;99.90;;;;;;4921568;29;20030;-95
2022/09/22 01:07:11;;;;;;;12.23;11.43;;;15.50;99.90;;;;;;4923952;29;20027;-95
2022/09/22 01:09:38;;;;;;;12.15;11.43;;;15.60;99.90;;;;;;4922188;29;20028;-93
2022/09/22 01:12:05;;;;;;;12.07;11.30;;;15.60;99.90;;;;;;4921949;29;20053;-94
2022/09/22 01:15:01;;;;;;;12.65;11.95;;;15.60;99.90;;;;;;4923264;29;20387;-94
2022/09/22 01:17:55;;;;;;;12.45;11.75;;;15.70;99.90;;;;;;4887512;29;20043;-93
2022/09/22 01:20:49;;;;;;;13.17;11.63;;;15.70;99.90;;;;;;4921802;29;20040;-94
2022/09/22 01:23:34;;;;;;;12.57;11.70;;;15.70;99.90;;;;;;4921008;29;20029;-94
2022/09/22 01:26:26;;;;;;;12.75;11.82;;;15.80;99.90;;;;;;4905004;29;20035;-93
2022/09/22 01:29:11;;;;;;;11.70;11.10;;;15.80;99.90;;;;;;4904477;29;20032;-95
2022/09/22 01:32:04;;;;;;;12.15;11.10;;;15.80;99.90;;;;;;4904664;29;20039;-93
2022/09/22 01:34:44;;;;;;;11.65;11.05;;;15.70;99.90;;;;;;4880251;29;20043;-93
2022/09/22 01:37:23;;;;;;;12.35;11.30;;;15.70;99.90;;;;;;4925068;29;20501;-95
2022/09/22 01:40:14;;;;;;;11.88;11.05;;;15.70;99.90;;;;;;4926714;29;20036;-93
2022/09/22 01:42:50;;;;;;;11.73;11.13;;;15.70;99.90;;;;;;4926472;29;20064;-93
2022/09/22 01:45:23;;;;;;;11.30;10.80;;;15.60;99.90;;;;;;4926656;29;20031;-93
2022/09/22 01:48:13;;;;;;;11.32;10.63;;;15.60;99.90;;;;;;4926439;29;20024;-93
2022/09/22 01:51:16;;;;;;;11.70;11.10;;;15.60;99.90;;;;;;4926567;29;20035;-94
2022/09/22 01:53:50;;;;;;;11.88;10.82;;;15.50;99.90;;;;;;4901910;29;20039;-93
2022/09/22 01:56:20;;;;;;;11.20;10.40;;;15.50;99.90;;;;;;4926506;29;20031;-93
2022/09/22 01:58:55;;;;;;;10.85;10.35;;;15.40;99.90;;;;;;4926247;29;20040;-93
2022/09/22 02:01:31;;;;;;;11.27;10.57;;;15.40;99.90;;;;;;4926693;29;20127;-94
2022/09/22 02:04:19;;;;;;;11.10;10.32;;;15.40;99.90;;;;;;4926262;29;20068;-93
2022/09/22 02:06:53;;;;;;;11.02;10.20;;;15.30;99.90;;;;;;4910685;29;20418;-93
2022/09/22 02:09:25;;;;;;;11.05;10.30;;;15.30;99.90;;;;;;4926314;29;20038;-94
2022/09/22 02:11:52;;;;;;;10.73;10.13;;;15.20;99.90;;;;;;4926655;29;20122;-92
2022/09/22 02:14:20;;;;;;;10.85;10.25;;;15.10;99.90;;;;;;4903876;29;20052;-92
2022/09/22 02:16:46;;;;;;;10.65;10.00;;;15.10;99.90;;;;;;4903786;29;20132;-94
2022/09/22 02:19:27;;;;;;;10.90;10.20;;;15.00;99.90;;;;;;4903659;29;20145;-93
2022/09/22 02:21:53;;;;;;;10.75;10.05;;;15.00;99.90;;;;;;4904494;29;20115;-92
2022/09/22 02:24:36;;;;;;;11.02;10.18;;;15.00;99.90;;;;;;4907187;29;20048;-94
2022/09/22 02:27:26;;;;;;;10.82;9.90;;;15.00;99.90;;;;;;4903623;29;20033;-95
2022/09/22 02:30:07;;;;;;;11.07;10.00;;;14.90;99.90;;;;;;4903521;29;20040;-94
2022/09/22 02:32:37;;;;;;;10.40;9.70;;;14.90;99.90;;;;;;4903654;29;20446;-93
2022/09/22 02:35:06;;;;;;;10.52;9.82;;;14.90;99.90;;;;;;4903423;29;20219;-94
2022/09/22 02:37:41;;;;;;;10.95;10.02;;;15.00;99.90;;;;;;4903238;29;20024;-94
2022/09/22 02:40:32;;;;;;;10.73;10.00;;;14.90;99.90;;;;;;4903439;29;20040;-94
2022/09/22 02:43:07;;;;;;;10.45;9.70;;;15.00;99.90;;;;;;4903391;29;20115;-93
2022/09/22 02:46:01;;;;;;;10.32;9.63;;;15.00;99.90;;;;;;4918649;29;20048;-92
2022/09/22 02:48:46;;;;;;;9.82;9.23;;;15.00;99.90;;;;;;4907596;29;20028;-95
2022/09/22 02:51:17;;;;;;;;;;;15.00;99.90;;;;;;4923646;29;20035;-94
2022/09/22 02:53:45;;;;;;;10.32;9.63;;;15.00;99.90;;;;;;4898873;29;19975;-92
2022/09/22 02:56:12;;;;;;;10.63;9.73;;;14.90;99.90;;;;;;4888453;29;20028;-95
2022/09/22 02:58:38;;;;;;;10.15;9.63;;;15.00;99.90;;;;;;4904058;29;20080;-94
2022/09/22 03:01:11;;;;;;;10.27;9.63;;;14.90;99.90;;;;;;4903901;29;20026;-93
2022/09/22 03:04:04;;;;;;;10.40;9.63;;;14.90;99.90;;;;;;4948658;23;20442;-93
2022/09/22 03:21:54;;;;;;;9.45;8.82;;;14.40;99.90;;;;;;4983142;23;20060;-94
2022/09/22 03:24:21;;;;;;;9.52;8.80;;;14.40;99.90;;;;;;4980139;28;20113;-92
2022/09/22 03:26:48;;;;;;;9.93;9.07;;;14.40;99.90;;;;;;4963710;28;20542;-93
2022/09/22 03:29:14;;;;;;;9.05;8.40;;;14.40;99.90;;;;;;4963938;28;20031;-94
2022/09/22 03:31:44;;;;;;;8.93;8.32;;;14.30;99.90;;;;;;4979946;28;20026;-92
2022/09/22 03:34:11;;;;;;;8.93;8.32;;;14.30;99.90;;;;;;4963838;28;20038;-95
2022/09/22 03:36:37;;;;;;;8.80;8.20;;;14.20;99.90;;;;;;4963560;28;20092;-93
2022/09/22 03:39:04;;;;;;;10.85;8.00;;;14.20;99.90;;;;;;4963823;28;20022;-94
2022/09/22 03:41:31;;;;;;;9.30;8.50;;;14.20;99.90;;;;;;4963615;28;20022;-93
2022/09/22 03:43:59;;;;;;;7.90;7.50;;;14.10;99.90;;;;;;4963645;28;20046;-95
2022/09/22 03:46:33;;;;;;;8.13;7.60;;;14.10;99.90;;;;;;4964224;28;20027;-95
2022/09/22 03:51:34;;;;;;;8.30;7.70;;;14.10;99.90;;;;;;4957220;28;20401;-92
2022/09/22 03:54:02;;;;;;;7.88;7.30;;;14.10;99.90;;;;;;4924938;29;20039;-93
2022/09/22 03:56:29;;;;;;;7.70;7.20;;;14.20;99.90;;;;;;4940845;29;20023;-92
2022/09/22 03:59:02;;;;;;;7.82;7.10;;;14.20;99.90;;;;;;4940973;29;20254;-93
2022/09/22 04:08:42;;;;;;;8.23;7.40;;;14.30;99.90;;;;;;5237890;23;20050;-94
2022/09/22 05:47:59;;;;;;;16.27;14.80;;;20.90;99.90;;;;;;5562302;23;20105;-93
2022/09/22 06:20:35;;;;;;;17.23;16.17;;;21.80;99.90;;;;;;4997366;28;20046;-93
2022/09/22 06:26:31;;;;;;;16.23;15.15;;;21.50;99.90;;;;;;4974702;23;20497;-93
2022/09/22 06:29:14;;;;;;;16.05;15.15;;;21.40;99.90;;;;;;4988664;28;20563;-90
2022/09/22 06:32:49;;;;;;;;;;;;;;;;;;;;;
2022/09/22 06:37:21;;;;;;;;;;;;;;;;;;;;;
2022/09/22 06:46:56;;;;;;;15.27;14.38;;;21.50;99.90;;;;;;5327677;23;20053;-91
2022/09/22 06:49:25;;;;;;;16.08;14.95;;;21.60;99.90;;;;;;4990601;28;20038;-90
2022/09/22 06:51:55;;;;;;;15.63;14.70;;;21.90;99.90;;;;;;4974102;28;20060;-91
2022/09/22 06:54:22;;;;;;;15.70;14.48;;;22.30;99.90;;;;;;4974727;28;20034;-90
2022/09/22 06:56:54;;;;;;;16.20;14.75;;;21.90;99.90;;;;;;4990368;28;20034;-90
2022/09/22 06:59:24;;;;;;;15.52;14.63;;;21.60;99.90;;;;;;4989928;28;20026;-90
2022/09/22 07:01:50;;;;;;;15.80;14.45;;;21.50;99.90;;;;;;4990685;28;20198;-91
2022/09/22 07:04:22;;;;;;;15.65;14.52;;;22.00;99.90;;;;;;4975043;28;20018;-91
2022/09/22 07:06:49;;;;;;;16.00;14.85;;;22.00;99.90;;;;;;4974767;28;20030;-91
2022/09/22 07:09:16;;;;;;;16.27;15.18;;;22.10;99.90;;;;;;4975645;28;20099;-91
2022/09/22 10:27:23;;;;;;;17.27;16.33;;;21.20;99.90;;;;;;5629679;23;20137;-92
2022/09/22 10:30:11;;;;;;;17.05;16.05;;;21.30;99.90;;;;;;4962566;28;20041;-88
2022/09/22 10:32:38;;;;;;;16.73;15.70;;;21.30;99.90;;;;;;4959968;28;20057;-86
2022/09/22 10:35:24;;;;;;;16.92;16.02;;;21.40;99.90;;;;;;4957185;28;20105;-90
2022/09/22 10:37:51;;;;;;;17.13;16.13;;;21.10;99.90;;;;;;4977406;28;20065;-88
2022/09/22 10:40:20;;;;;;;16.77;15.85;;;20.90;99.90;;;;;;4957339;28;20101;-89
2022/09/22 10:42:49;;;;;;;16.33;15.57;;;21.00;99.90;;;;;;4977164;28;20035;-83
2022/09/22 10:45:18;;;;;;;16.65;15.73;;;21.10;99.90;;;;;;4976513;28;20146;-84
2022/09/22 10:48:02;;;;;;;16.73;15.80;;;21.40;99.90;;;;;;4976395;28;20026;-83
2022/09/22 10:51:07;;;;;;;17.20;16.20;;;21.40;99.90;;;;;;4976371;28;20062;-81
2022/09/22 10:53:52;;;;;;;17.30;16.40;;;21.30;99.90;;;;;;4932218;28;20042;-82
2022/09/22 10:56:37;;;;;;;17.13;16.23;;;21.20;99.90;;;;;;4959809;28;20034;-81
2022/09/22 10:59:31;;;;;;;17.38;16.38;;;21.20;99.90;;;;;;4976191;28;20035;-80
2022/09/22 11:02:34;;;;;;;16.50;15.70;;;21.50;99.90;;;;;;4943828;28;20074;-82
2022/09/22 11:12:15;;;;;;;16.33;15.52;;;21.20;99.90;;;;;;4976232;28;20038;-81
2022/09/22 11:14:17;;;;;;;16.60;15.70;;;21.30;99.90;;;;;;4959615;28;20126;-82
2022/09/22 11:16:56;;;;;;;16.85;15.52;;;21.20;99.90;;;;;;4975878;28;20057;-86
2022/09/22 11:19:42;;;;;;;17.10;15.82;;;21.40;99.90;;;;;;4960084;28;20388;-84
2022/09/22 11:22:23;;;;;;;16.73;15.93;;;21.50;99.90;;;;;;4976569;28;20070;-80
2022/09/22 11:24:58;;;;;;;16.48;15.65;;;21.10;99.90;;;;;;4943542;28;20037;-83
2022/09/22 11:27:57;;;;;;;16.88;15.90;;;21.20;99.90;;;;;;4955934;29;20068;-82
2022/09/22 11:30:24;;;;;;;17.50;16.30;;;21.30;99.90;;;;;;4940170;29;20068;-82
2022/09/22 11:33:31;;;;;;;16.45;15.65;;;21.30;99.90;;;;;;4924325;29;20038;-80
2022/09/22 11:36:10;;;;;;;16.98;16.08;;;21.50;99.90;;;;;;4902874;29;20070;-80
2022/09/22 11:38:59;;;;;;;17.13;16.02;;;21.50;99.90;;;;;;4957335;29;20501;-82
2022/09/22 11:42:03;;;;;;;17.20;16.30;;;21.40;99.90;;;;;;4955897;29;20031;-80
2022/09/22 11:44:39;;;;;;;17.38;16.38;;;21.40;99.90;;;;;;4923992;29;20082;-80
2022/09/22 11:47:39;;;;;;;17.35;16.30;;;21.40;99.90;;;;;;4939827;29;20378;-79
2022/09/22 11:50:35;;;;;;;16.48;15.68;;;21.20;99.90;;;;;;4955846;29;20477;-79
2022/09/22 11:53:26;;;;;;;16.83;16.02;;;21.40;99.90;;;;;;4939805;29;20121;-80
2022/09/22 11:56:17;;;;;;;16.50;15.70;;;21.10;99.90;;;;;;4956957;29;20098;-81
2022/09/22 11:58:46;;;;;;;16.50;15.70;;;21.00;99.90;;;;;;4956917;29;20089;-80
2022/09/22 12:01:28;;;;;;;16.33;15.52;;;21.10;99.90;;;;;;4955614;29;20408;-80
2022/09/22 15:50:56;;;;;;;15.43;14.68;;;19.40;99.90;;;;;;5951751;23;20066;-92
2022/09/22 15:53:23;;;;;;;15.30;14.50;;;19.40;99.90;;;;;;4979403;28;20053;-91
2022/09/22 15:55:51;;;;;;;15.40;14.70;;;19.30;99.90;;;;;;4963395;28;20046;-91
2022/09/22 15:58:22;;;;;;;15.15;14.32;;;19.30;99.90;;;;;;4979232;28;20030;-91
2022/09/22 16:00:52;;;;;;;15.00;14.30;;;19.20;99.90;;;;;;4979148;28;20060;-91
2022/09/22 16:03:21;;;;;;;15.68;14.88;;;19.20;99.90;;;;;;4963315;28;20026;-92
2022/09/22 16:06:15;;;;;;;15.07;14.38;;;19.20;99.90;;;;;;4962963;28;20026;-92
2022/09/22 16:08:54;;;;;;;15.25;14.50;;;19.10;99.90;;;;;;4962229;28;20061;-91
2022/09/22 16:11:28;;;;;;;15.18;14.27;;;19.00;99.90;;;;;;4963209;28;20399;-91
2022/09/22 16:14:02;;;;;;;14.98;14.27;;;18.90;99.90;;;;;;4965508;28;20026;-91
2022/09/22 16:16:29;;;;;;;;;;;18.80;99.90;;;;;;4963472;28;20093;-91
2022/09/22 16:18:57;;;;;;;15.85;14.88;;;18.80;99.90;;;;;;4980002;28;19906;-92
2022/09/22 16:21:28;;;;;;;17.08;16.17;;;18.70;99.90;;;;;;4963768;28;20030;-92
2022/09/22 16:23:56;;;;;;;15.95;15.07;;;18.60;99.90;;;;;;4979175;28;20395;-93
2022/09/22 16:26:24;;;;;;;14.85;14.05;;;18.50;99.90;;;;;;4962818;28;20053;-93
2022/09/22 16:28:51;;;;;;;14.93;14.02;;;18.60;99.90;;;;;;4962662;28;20030;-91
2022/09/22 16:34:14;;;;;;;20.45;18.85;;;18.50;99.90;;;;;;5185222;23;20093;-91
2022/09/22 16:36:44;;;;;;;22.00;19.92;;;18.50;99.90;;;;;;4981277;28;20034;-91
2022/09/22 16:39:10;;;;;;;17.80;16.60;;;18.40;99.90;;;;;;4978933;28;20037;-92
2022/09/22 16:41:44;;;;;;;19.27;17.65;;;18.40;99.90;;;;;;4978897;28;20045;-91
2022/09/22 16:44:10;;;;;;;17.48;16.08;;;18.40;99.90;;;;;;4963049;28;20030;-91
2022/09/22 16:46:37;;;;;;;15.15;14.15;;;18.40;99.90;;;;;;4962398;28;20073;-91
2022/09/22 16:49:09;;;;;;;14.40;13.60;;;18.30;99.90;;;;;;4962589;28;20026;-94
2022/09/22 16:51:38;;;;;;;14.95;14.02;;;18.30;99.90;;;;;;4978300;28;20572;-92
2022/09/22 16:54:07;;;;;;;14.90;13.90;;;18.20;99.90;;;;;;4962053;28;20117;-93
2022/09/22 16:56:38;;;;;;;16.00;15.00;;;18.20;99.90;;;;;;4978179;28;20035;-90
2022/09/22 16:59:06;;;;;;;17.10;15.82;;;18.20;99.90;;;;;;4962709;28;20113;-92
2022/09/22 17:01:36;;;;;;;16.20;15.07;;;18.20;99.90;;;;;;4962080;28;20066;-91
2022/09/22 17:04:04;;;;;;;15.55;14.10;;;18.10;99.90;;;;;;4962031;28;20065;-91
2022/09/22 17:06:31;;;;;;;15.23;14.15;;;18.00;99.90;;;;;;4961589;28;20022;-91
2022/09/22 17:08:58;;;;;;;14.70;13.80;;;18.00;99.90;;;;;;4961848;28;20023;-91
2022/09/22 17:11:33;;;;;;;14.18;13.38;;;18.00;99.90;;;;;;4961943;28;20030;-90
2022/09/22 17:14:05;;;;;;;14.80;13.77;;;18.00;99.90;;;;;;4962470;28;20066;-90
2022/09/22 17:16:34;;;;;;;14.23;13.48;;;17.90;99.90;;;;;;4962204;28;20034;-90
2022/09/22 17:19:03;;;;;;;15.20;14.10;;;17.90;99.90;;;;;;4961719;28;20392;-92
2022/09/22 17:21:31;;;;;;;15.65;14.38;;;17.90;99.90;;;;;;4977615;28;20487;-91
2022/09/22 17:24:01;;;;;;;14.82;13.82;;;17.90;99.90;;;;;;4961554;28;20026;-91
2022/09/22 17:26:31;;;;;;;15.80;14.20;;;17.90;99.90;;;;;;4961594;28;20116;-93
2022/09/22 17:29:01;;;;;;;14.68;13.80;;;17.90;99.90;;;;;;4961586;28;20030;-94
2022/09/22 17:31:29;;;;;;;14.30;13.40;;;17.90;99.90;;;;;;4961736;28;20026;-93
2022/09/22 17:33:57;;;;;;;14.20;13.30;;;17.80;99.90;;;;;;4944908;28;20073;-92
2022/09/22 17:36:25;;;;;;;14.07;13.18;;;17.90;99.90;;;;;;4942388;28;20035;-93
2022/09/22 17:38:54;;;;;;;13.73;13.02;;;17.80;99.90;;;;;;4942707;28;20027;-93
2022/09/22 17:41:28;;;;;;;14.50;13.40;;;17.80;99.90;;;;;;4942500;28;20388;-92
2022/09/22 17:43:56;;;;;;;14.23;13.35;;;17.80;99.90;;;;;;4942771;28;20038;-95
2022/09/22 17:46:24;;;;;;;13.77;12.98;;;17.80;99.90;;;;;;4942281;28;20035;-93
2022/09/22 17:57:32;;;;;;;14.07;13.18;;;17.70;99.90;;;;;;4958188;28;20093;-93
2022/09/22 17:59:59;;;;;;;14.32;13.15;;;17.60;99.90;;;;;;4942244;28;20038;-93
2022/09/22 18:02:28;;;;;;;14.30;13.38;;;17.60;99.90;;;;;;4941935;28;20391;-95
2022/09/22 18:04:54;;;;;;;14.10;13.25;;;17.60;99.90;;;;;;4942231;28;20035;-94
2022/09/22 18:07:24;;;;;;;14.18;13.10;;;17.60;99.90;;;;;;4942129;28;20020;-94
2022/09/22 18:09:54;;;;;;;13.52;12.73;;;17.50;99.90;;;;;;4942211;28;20074;-92
2022/09/22 18:12:23;;;;;;;14.00;13.15;;;17.50;99.90;;;;;;4942060;28;20110;-93
2022/09/22 18:14:54;;;;;;;14.85;13.05;;;17.40;99.90;;;;;;4941889;28;20496;-91
2022/09/22 18:17:27;;;;;;;14.48;13.40;;;17.40;99.90;;;;;;4942187;28;20031;-92
2022/09/22 18:19:57;;;;;;;14.02;13.10;;;17.40;99.90;;;;;;4944171;28;20031;-93
2022/09/22 18:22:25;;;;;;;15.27;14.20;;;17.40;99.90;;;;;;4945804;28;20043;-92
2022/09/22 18:24:54;;;;;;;14.07;13.18;;;17.30;99.90;;;;;;4945702;28;20039;-95
2022/09/22 18:27:25;;;;;;;14.10;13.20;;;17.30;99.90;;;;;;4949425;28;20038;-94
2022/09/22 18:29:57;;;;;;;14.60;13.35;;;17.20;99.90;;;;;;4952296;28;20045;-93
2022/09/22 18:32:28;;;;;;;14.23;13.13;;;17.20;99.90;;;;;;4946319;28;20038;-93
2022/09/22 18:35:05;;;;;;;14.63;13.30;;;17.20;99.90;;;;;;4961321;28;20046;-94
2022/09/22 18:37:31;;;;;;;14.07;12.82;;;17.20;99.90;;;;;;4945463;28;20109;-95
2022/09/22 18:40:01;;;;;;;13.48;12.48;;;17.20;99.90;;;;;;4946410;28;20027;-95
2022/09/22 18:42:33;;;;;;;14.18;13.20;;;17.20;99.90;;;;;;4945427;28;20030;-93
2022/09/22 18:45:00;;;;;;;15.07;13.85;;;17.20;99.90;;;;;;4945981;28;20043;-94
2022/09/22 18:47:42;;;;;;;14.77;13.55;;;17.00;99.90;;;;;;4945283;28;20468;-94
2022/09/22 18:53:09;;;;;;;14.18;13.27;;;17.00;99.90;;;;;;4954926;28;20035;-94
2022/09/22 18:55:37;;;;;;;14.80;13.63;;;16.90;99.90;;;;;;4949269;28;20035;-92
2022/09/22 18:58:04;;;;;;;13.75;12.85;;;16.90;99.90;;;;;;4945605;28;20086;-92
2022/09/22 19:00:30;;;;;;;14.27;13.13;;;16.90;99.90;;;;;;4945292;28;20142;-93
2022/09/22 19:02:59;;;;;;;13.90;13.00;;;16.90;99.90;;;;;;4945449;28;20468;-94
2022/09/22 19:05:27;;;;;;;13.98;12.95;;;16.90;99.90;;;;;;4945122;28;20038;-95
2022/09/22 19:07:59;;;;;;;14.15;13.20;;;16.90;99.90;;;;;;4944893;28;20018;-94
2022/09/22 19:10:26;;;;;;;14.32;13.15;;;16.80;99.90;;;;;;4944955;28;20054;-92
2022/09/22 19:12:53;;;;;;;14.57;13.30;;;16.80;99.90;;;;;;4945043;28;20027;-92
2022/09/22 19:15:19;;;;;;;13.23;12.23;;;16.70;99.90;;;;;;4944834;28;20034;-91
2022/09/22 19:17:48;;;;;;;14.25;13.15;;;16.70;99.90;;;;;;4944544;28;20041;-93
2022/09/22 19:20:19;;;;;;;14.65;13.45;;;16.60;99.90;;;;;;4944523;28;20034;-94
2022/09/22 19:22:46;;;;;;;13.80;12.73;;;16.60;99.90;;;;;;4944840;28;20066;-93
2022/09/22 19:25:12;;;;;;;13.88;12.88;;;16.60;99.90;;;;;;4944597;28;20150;-92
2022/09/22 19:27:39;;;;;;;15.32;13.82;;;16.60;99.90;;;;;;4944886;28;20030;-93
2022/09/22 19:30:10;;;;;;;14.05;13.05;;;16.60;99.90;;;;;;4944134;28;20035;-94
2022/09/22 19:32:37;;;;;;;14.82;13.48;;;16.50;99.90;;;;;;4944236;28;20046;-93
2022/09/22 19:35:05;;;;;;;13.90;12.90;;;16.50;99.90;;;;;;4944818;28;20110;-92
2022/09/22 19:37:44;;;;;;;14.38;13.13;;;16.40;99.90;;;;;;4947300;28;20035;-94
2022/09/22 19:40:15;;;;;;;14.20;12.93;;;16.40;99.90;;;;;;4947063;28;20086;-94
2022/09/22 19:42:42;;;;;;;13.80;12.70;;;16.40;99.90;;;;;;4945294;28;20031;-92
2022/09/22 19:45:45;;;;;;;12.90;11.98;;;16.40;99.90;;;;;;4950805;28;20034;-94
2022/09/22 19:52:22;;;;;;;14.02;13.02;;;16.30;99.90;;;;;;4892680;29;20102;-94
2022/09/22 19:55:30;;;;;;;13.05;11.95;;;16.30;99.90;;;;;;4784681;30;20059;-95
2022/09/22 19:58:10;;;;;;;13.48;12.48;;;16.30;99.90;;;;;;4742589;30;20131;-93
2022/09/22 20:00:37;;;;;;;12.52;11.55;;;16.30;99.90;;;;;;4770790;30;20493;-92
2022/09/22 20:03:04;;;;;;;12.70;11.70;;;16.30;99.90;;;;;;4770869;30;20120;-92
2022/09/22 20:05:36;;;;;;;13.93;12.82;;;16.30;99.90;;;;;;4770984;30;20119;-93
2022/09/22 20:08:05;;;;;;;14.30;13.10;;;16.30;99.90;;;;;;4770793;30;20147;-94
2022/09/22 20:10:33;;;;;;;13.40;12.30;;;16.20;99.90;;;;;;4771205;30;20453;-94
2022/09/22 20:14:18;;;;;;;13.90;12.80;;;16.20;99.90;;;;;;4771889;30;20050;-94
2022/09/22 20:15:54;;;;;;;13.15;12.13;;;16.20;99.90;;;;;;4772854;30;20079;-94
2022/09/22 20:18:21;;;;;;;13.18;12.18;;;16.10;99.90;;;;;;4771194;30;20078;-94
2022/09/22 20:20:51;;;;;;;12.73;11.93;;;16.10;99.90;;;;;;4770645;30;20039;-95
2022/09/22 20:23:20;;;;;;;13.48;12.38;;;16.00;99.90;;;;;;4770638;30;20119;-94
2022/09/22 20:25:49;;;;;;;13.32;12.43;;;16.00;99.90;;;;;;4862373;29;20141;-93
2022/09/22 20:28:17;;;;;;;12.98;12.02;;;15.90;99.90;;;;;;4924622;29;20062;-94
2022/09/22 20:30:44;;;;;;;12.30;11.40;;;16.00;99.90;;;;;;4924405;29;20034;-92
2022/09/22 20:33:22;;;;;;;12.02;11.23;;;15.90;99.90;;;;;;4924245;29;20497;-95
2022/09/22 20:35:50;;;;;;;12.55;11.65;;;15.90;99.90;;;;;;4924444;29;20035;-93
2022/09/22 20:38:18;;;;;;;12.65;11.50;;;15.90;99.90;;;;;;4924115;29;20027;-94
2022/09/22 20:40:46;;;;;;;12.68;11.70;;;15.90;99.90;;;;;;4923963;28;20039;-94
2022/09/22 20:43:14;;;;;;;12.10;11.00;;;15.90;99.90;;;;;;4924218;29;20035;-93
2022/09/22 20:45:42;;;;;;;12.30;11.30;;;15.90;99.90;;;;;;4924155;29;20050;-94
2022/09/22 20:48:17;;;;;;;12.30;11.30;;;15.90;99.90;;;;;;4924111;29;20027;-94
2022/09/22 20:50:54;;;;;;;11.93;11.10;;;15.80;99.90;;;;;;4924342;29;20029;-95
2022/09/22 20:53:21;;;;;;;12.43;11.52;;;15.80;99.90;;;;;;4924300;29;20035;-92
2022/09/22 20:56:19;;;;;;;13.43;12.23;;;15.80;99.90;;;;;;4924142;29;20035;-92
2022/09/22 20:58:46;;;;;;;11.90;11.15;;;15.70;99.90;;;;;;4924050;29;20028;-93
2022/09/22 21:01:16;;;;;;;12.63;11.55;;;15.70;99.90;;;;;;4923729;29;20027;-94
2022/09/22 21:03:43;;;;;;;13.52;12.13;;;15.70;99.90;;;;;;4923793;29;20035;-94
2022/09/22 21:06:11;;;;;;;13.02;11.90;;;15.70;99.90;;;;;;4923690;29;20019;-93
2022/09/22 21:11:27;;;;;;;12.02;11.23;;;15.80;99.90;;;;;;4939559;29;20023;-92
2022/09/22 21:13:57;;;;;;;12.25;11.55;;;15.70;99.90;;;;;;4923629;29;20027;-94
2022/09/22 21:16:24;;;;;;;13.00;11.90;;;15.70;99.90;;;;;;4923617;29;20035;-92
2022/09/22 21:18:51;;;;;;;13.00;12.07;;;15.80;99.90;;;;;;4924223;29;20411;-93
2022/09/22 21:21:21;;;;;;;12.60;11.77;;;15.70;99.90;;;;;;4923898;29;20046;-94
2022/09/22 21:23:48;;;;;;;12.90;11.95;;;15.70;99.90;;;;;;4925939;29;20030;-93
2022/09/22 21:26:19;;;;;;;12.65;11.80;;;15.60;99.90;;;;;;4925092;29;20031;-94
2022/09/22 21:28:49;;;;;;;12.50;11.60;;;15.60;99.90;;;;;;4923710;29;20037;-93
2022/09/22 21:31:17;;;;;;;12.63;11.73;;;15.50;99.90;;;;;;4923886;29;20027;-94
2022/09/22 21:33:45;;;;;;;12.60;11.80;;;15.50;99.90;;;;;;4923986;29;20142;-93
2022/09/22 21:36:49;;;;;;;12.48;11.68;;;15.40;99.90;;;;;;4939509;29;20035;-94
2022/09/22 21:39:16;;;;;;;12.55;11.85;;;15.40;99.90;;;;;;4939619;29;20038;-94
2022/09/22 21:41:49;;;;;;;12.45;11.55;;;15.40;99.90;;;;;;4925538;29;20031;-95
2022/09/22 21:44:22;;;;;;;11.80;11.05;;;15.30;99.90;;;;;;4925021;29;20070;-94
2022/09/22 21:46:53;;;;;;;12.50;11.80;;;15.20;99.90;;;;;;4926115;29;20050;-94
2022/09/22 21:49:23;;;;;;;12.25;11.38;;;15.20;99.90;;;;;;4927031;29;20035;-94
2022/09/22 21:51:50;;;;;;;12.05;11.25;;;15.10;99.90;;;;;;4925060;29;20111;-94
2022/09/22 21:54:43;;;;;;;12.13;11.23;;;14.90;99.90;;;;;;4911445;29;20032;-94
2022/09/22 21:57:16;;;;;;;11.70;10.90;;;14.90;99.90;;;;;;4927919;29;20066;-94
2022/09/22 21:59:58;;;;;;;11.75;10.85;;;15.00;99.90;;;;;;4913131;29;20147;-94
2022/09/22 22:03:29;;;;;;;11.95;11.05;;;15.10;99.90;;;;;;4926616;29;20032;-94
2022/09/22 22:05:18;;;;;;;11.68;10.77;;;15.20;99.90;;;;;;4943073;29;20109;-94
2022/09/22 22:07:51;;;;;;;12.25;10.93;;;15.20;99.90;;;;;;4927328;29;20597;-94
2022/09/22 22:10:27;;;;;;;11.80;10.70;;;15.20;99.90;;;;;;4909463;29;20039;-94
2022/09/22 22:12:56;;;;;;;11.20;10.50;;;15.20;99.90;;;;;;4907529;29;20068;-93
2022/09/22 22:19:01;;;;;;;11.63;10.93;;;15.20;99.90;;;;;;4892094;29;20041;-94
2022/09/22 22:21:45;;;;;;;11.85;11.10;;;15.10;99.90;;;;;;4873290;29;20041;-94
2022/09/22 22:35:14;;;;;;;11.27;10.65;;;14.60;99.90;;;;;;5137355;23;20120;-94
2022/09/22 22:37:45;;;;;;;11.80;10.73;;;14.60;99.90;;;;;;4949657;28;20027;-94
2022/09/22 22:40:18;;;;;;;12.15;11.00;;;14.60;99.90;;;;;;4928327;29;20564;-95
2022/09/22 22:42:46;;;;;;;12.50;11.27;;;14.50;99.90;;;;;;4927206;29;20504;-93
2022/09/22 22:45:13;;;;;;;11.70;10.80;;;14.50;99.90;;;;;;4942816;29;20027;-94
2022/09/22 22:47:40;;;;;;;12.15;11.23;;;14.40;99.90;;;;;;4942555;29;20066;-94
2022/09/22 22:50:17;;;;;;;12.20;10.68;;;14.30;99.90;;;;;;4928721;29;20609;-95
2022/09/22 22:52:44;;;;;;;12.35;10.70;;;14.30;99.90;;;;;;4926990;29;20039;-94
2022/09/22 22:55:12;;;;;;;10.88;9.88;;;14.30;99.90;;;;;;4926831;29;20042;-95
2022/09/22 22:57:40;;;;;;;11.65;10.65;;;14.30;99.90;;;;;;4943318;29;20122;-93
2022/09/22 23:00:07;;;;;;;11.95;10.40;;;14.20;99.90;;;;;;4942736;28;20030;-94
2022/09/22 23:02:34;;;;;;;10.98;10.07;;;14.30;99.90;;;;;;4942601;28;20058;-93
2022/09/22 23:05:01;;;;;;;10.77;9.88;;;14.20;99.90;;;;;;4925975;29;20031;-93
2022/09/22 23:07:28;;;;;;;11.48;10.48;;;14.20;99.90;;;;;;4943494;29;20032;-94
2022/09/22 23:10:10;;;;;;;10.38;9.73;;;14.20;99.90;;;;;;4926362;29;20064;-94
2022/09/22 23:13:14;;;;;;;10.50;9.80;;;14.30;99.90;;;;;;4943048;29;20031;-94
2022/09/22 23:16:26;;;;;;;10.50;9.68;;;14.30;99.90;;;;;;4943329;29;20062;-94
2022/09/22 23:22:10;;;;;;;10.30;9.60;;;14.20;99.90;;;;;;4882233;29;20060;-94
2022/09/22 23:24:40;;;;;;;10.40;9.60;;;14.10;99.90;;;;;;4866046;29;20093;-93
2022/09/22 23:27:07;;;;;;;10.50;9.65;;;14.00;99.90;;;;;;4867663;29;20037;-94
2022/09/22 23:29:35;;;;;;;10.48;9.60;;;14.00;99.90;;;;;;4872475;29;20491;-95
2022/09/22 23:32:02;;;;;;;10.68;9.60;;;13.90;99.90;;;;;;4866729;29;20081;-94
2022/09/22 23:34:28;;;;;;;10.20;9.48;;;13.90;99.90;;;;;;4875140;29;20052;-94
2022/09/22 23:36:56;;;;;;;10.43;9.57;;;13.90;99.90;;;;;;4868661;29;20040;-93